Atwell, WV

8:40 PM EST on March 06, 2015 (GMT -0500)
Oakwood, VA | Change Station
CLOSE
Current Station
Personal Weather Station
Location: Oakwood, VA
Elevation: 1404 ft
Nearby Weather Stations

Elev 1404 ft 37.21 °N, 82.01 °W | Updated 10 seconds ago

Clear
Clear
26.2 °F
Feels Like 26 °F
N
0.0
Wind Variable Wind from SW

Today
High -- | Low -- °F
--% Chance of Precip.
Yesterday
High -- | Low -- °F
Precip. -- in
6:51 AM 6:25 PM
Full, 98% visible
Pressure 30.33 in
Visibility 10.0 miles
Clouds Clear
Windchill 26 °F
Dew Point 22 °F
Humidity 85%
Rainfall in
Snow Depth Not available.
UV 0 out of 12
Pollen 2.90 out of 12
Air Quality Not available.
Flu Activity Not available.
METAR KJFZ 070135Z AUTO 23005KT 10SM CLR M03/M10 A3033 RMK AO2 T10351102

More Conditions Fewer Conditions

Pressure 30.33 in
Visibility 10.0 miles
Clouds Clear
Windchill 26 °F
Dew Point 22 °F
Humidity 85%
Rainfall in
Snow Depth Not available.
UV 0 out of 12
Pollen 2.90 out of 12
Air Quality Not available.
Flu Activity Not available.
METAR KJFZ 070135Z AUTO 23005KT 10SM CLR M03/M10 A3033 RMK AO2 T10351102

More Conditions Fewer Conditions

10-Day Weather Forecast

Almanac

Astronomy

Mar. 06, 2015 Rise Set
Actual Time
Civil Twilight
Nautical Twilight
Astronomical Twilight
Moon
Length of Visible Light
Length of Day
Tomorrow will be .
, % of the Moon is Illuminated

Today's Extremes

State Highs State Lows

Community

WunderPhotos

Upload Photos

1,803,494 photos uploaded!

WunderBlogs® & News

Nearby

Air Quality

  Air Quality AQ Index Pollutant
Not available.

Snow Depth

Station Depth Elevation

Earthquake Activity

City Distance Mag. Time & Date
Minimum magnitude displayed is 2.5.

Coastal Water Temperatures

Place Temperature

Nearby Weather Stations